sensor_id;sensor_type;location;lat;lon;timestamp;pressure;altitude;pressure_sealevel;temperature;humidity
54918;BME280;40818;50.562;7.454;2023-05-22T00:03:57;97492.00;;;16.65;100.00
54918;BME280;40818;50.562;7.454;2023-05-22T00:14:04;97488.47;;;16.57;100.00
54918;BME280;40818;50.562;7.454;2023-05-22T00:24:08;97475.41;;;16.47;100.00
54918;BME280;40818;50.562;7.454;2023-05-22T00:34:14;97473.63;;;16.37;100.00
54918;BME280;40818;50.562;7.454;2023-05-22T00:44:18;97468.44;;;16.28;100.00
54918;BME280;40818;50.562;7.454;2023-05-22T00:54:25;97462.94;;;16.21;100.00
54918;BME280;40818;50.562;7.454;2023-05-22T01:04:28;97461.84;;;16.14;100.00
54918;BME280;40818;50.562;7.454;2023-05-22T01:14:39;97466.00;;;16.07;100.00
54918;BME280;40818;50.562;7.454;2023-05-22T01:25:11;97461.75;;;15.96;100.00
54918;BME280;40818;50.562;7.454;2023-05-22T01:35:23;97467.16;;;15.84;100.00
54918;BME280;40818;50.562;7.454;2023-05-22T01:45:28;97467.94;;;15.75;100.00
54918;BME280;40818;50.562;7.454;2023-05-22T01:55:45;97471.28;;;15.67;100.00
54918;BME280;40818;50.562;7.454;2023-05-22T02:05:58;97461.63;;;15.58;100.00
54918;BME280;40818;50.562;7.454;2023-05-22T02:16:05;97458.59;;;15.53;100.00
54918;BME280;40818;50.562;7.454;2023-05-22T02:26:09;97449.13;;;15.42;100.00
54918;BME280;40818;50.562;7.454;2023-05-22T02:36:15;97451.75;;;15.32;100.00
54918;BME280;40818;50.562;7.454;2023-05-22T02:46:20;97455.84;;;15.25;100.00
54918;BME280;40818;50.562;7.454;2023-05-22T02:56:27;97460.81;;;15.18;100.00
54918;BME280;40818;50.562;7.454;2023-05-22T03:06:30;97451.97;;;15.10;100.00
54918;BME280;40818;50.562;7.454;2023-05-22T03:16:37;97452.66;;;15.02;100.00
54918;BME280;40818;50.562;7.454;2023-05-22T03:26:41;97441.22;;;14.93;100.00
54918;BME280;40818;50.562;7.454;2023-05-22T03:36:53;97440.09;;;14.86;100.00
54918;BME280;40818;50.562;7.454;2023-05-22T03:46:57;97449.44;;;14.79;100.00
54918;BME280;40818;50.562;7.454;2023-05-22T03:57:04;97447.25;;;14.74;100.00
54918;BME280;40818;50.562;7.454;2023-05-22T04:07:07;97440.50;;;14.72;100.00
54918;BME280;40818;50.562;7.454;2023-05-22T04:17:15;97452.47;;;14.74;100.00
54918;BME280;40818;50.562;7.454;2023-05-22T04:27:18;97459.91;;;14.79;100.00
54918;BME280;40818;50.562;7.454;2023-05-22T04:37:24;97469.84;;;14.85;100.00
54918;BME280;40818;50.562;7.454;2023-05-22T04:47:31;97478.78;;;14.92;100.00
54918;BME280;40818;50.562;7.454;2023-05-22T04:57:41;97484.03;;;15.02;100.00
54918;BME280;40818;50.562;7.454;2023-05-22T05:07:48;97498.50;;;15.16;100.00
54918;BME280;40818;50.562;7.454;2023-05-22T05:17:55;97493.59;;;15.32;100.00
54918;BME280;40818;50.562;7.454;2023-05-22T05:27:58;97493.84;;;15.49;100.00
54918;BME280;40818;50.562;7.454;2023-05-22T05:38:05;97488.91;;;15.65;100.00
54918;BME280;40818;50.562;7.454;2023-05-22T05:48:11;97484.81;;;15.82;100.00
54918;BME280;40818;50.562;7.454;2023-05-22T05:58:20;97495.34;;;16.00;100.00
54918;BME280;40818;50.562;7.454;2023-05-22T06:08:37;97493.69;;;16.19;100.00
54918;BME280;40818;50.562;7.454;2023-05-22T06:18:44;97508.63;;;16.46;100.00
54918;BME280;40818;50.562;7.454;2023-05-22T06:28:49;97511.56;;;16.71;100.00
54918;BME280;40818;50.562;7.454;2023-05-22T06:38:57;97523.22;;;16.96;100.00
54918;BME280;40818;50.562;7.454;2023-05-22T06:49:19;97535.84;;;17.11;100.00
54918;BME280;40818;50.562;7.454;2023-05-22T06:59:29;97536.00;;;17.09;100.00
54918;BME280;40818;50.562;7.454;2023-05-22T07:09:39;97542.59;;;17.31;100.00
54918;BME280;40818;50.562;7.454;2023-05-22T07:19:46;97546.84;;;17.60;100.00
54918;BME280;40818;50.562;7.454;2023-05-22T07:29:49;97560.53;;;18.00;100.00
54918;BME280;40818;50.562;7.454;2023-05-22T07:39:56;97560.56;;;18.26;100.00
54918;BME280;40818;50.562;7.454;2023-05-22T07:50:00;97555.34;;;18.34;100.00
54918;BME280;40818;50.562;7.454;2023-05-22T08:00:08;97560.53;;;18.79;100.00
54918;BME280;40818;50.562;7.454;2023-05-22T08:10:15;97570.94;;;19.15;100.00
54918;BME280;40818;50.562;7.454;2023-05-22T08:20:21;97565.13;;;19.62;100.00
54918;BME280;40818;50.562;7.454;2023-05-22T08:30:25;97559.63;;;19.98;100.00
54918;BME280;40818;50.562;7.454;2023-05-22T08:40:34;97557.59;;;20.41;100.00
54918;BME280;40818;50.562;7.454;2023-05-22T08:50:40;97562.16;;;20.80;100.00
54918;BME280;40818;50.562;7.454;2023-05-22T09:00:48;97552.56;;;22.28;97.42
54918;BME280;40818;50.562;7.454;2023-05-22T09:10:51;97549.97;;;24.41;85.79
54918;BME280;40818;50.562;7.454;2023-05-22T09:20:59;97552.84;;;25.65;79.32
54918;BME280;40818;50.562;7.454;2023-05-22T09:31:03;97549.69;;;25.34;74.74
54918;BME280;40818;50.562;7.454;2023-05-22T09:41:10;97548.22;;;25.25;75.24
54918;BME280;40818;50.562;7.454;2023-05-22T09:51:14;97547.41;;;27.25;69.78
54918;BME280;40818;50.562;7.454;2023-05-22T10:01:23;97542.97;;;29.03;60.89
54918;BME280;40818;50.562;7.454;2023-05-22T10:11:28;97551.06;;;30.06;57.04
54918;BME280;40818;50.562;7.454;2023-05-22T10:21:35;97542.63;;;31.49;52.23
54918;BME280;40818;50.562;7.454;2023-05-22T10:31:44;97542.41;;;31.80;49.64
54918;BME280;40818;50.562;7.454;2023-05-22T10:42:03;97534.97;;;31.01;50.55
54918;BME280;40818;50.562;7.454;2023-05-22T10:52:07;97531.97;;;30.85;48.94
54918;BME280;40818;50.562;7.454;2023-05-22T11:02:24;97534.19;;;31.58;48.02
54918;BME280;40818;50.562;7.454;2023-05-22T11:12:29;97533.00;;;31.94;46.37
54918;BME280;40818;50.562;7.454;2023-05-22T11:22:41;97531.50;;;31.70;46.80
54918;BME280;40818;50.562;7.454;2023-05-22T11:32:45;97522.50;;;32.10;45.61
54918;BME280;40818;50.562;7.454;2023-05-22T11:42:51;97520.38;;;32.85;44.45
54918;BME280;40818;50.562;7.454;2023-05-22T11:52:55;97503.22;;;32.13;45.65
54918;BME280;40818;50.562;7.454;2023-05-22T12:03:01;97490.16;;;32.56;44.20
54918;BME280;40818;50.562;7.454;2023-05-22T12:13:04;97497.03;;;31.95;43.83
54918;BME280;40818;50.562;7.454;2023-05-22T12:23:19;97500.91;;;32.39;40.52
54918;BME280;40818;50.562;7.454;2023-05-22T12:33:26;97499.06;;;31.88;44.05
54918;BME280;40818;50.562;7.454;2023-05-22T12:43:33;97486.66;;;30.84;43.34
54918;BME280;40818;50.562;7.454;2023-05-22T12:53:36;97481.94;;;30.14;47.10
54918;BME280;40818;50.562;7.454;2023-05-22T13:03:42;97496.91;;;29.38;47.92
54918;BME280;40818;50.562;7.454;2023-05-22T13:13:46;97485.09;;;28.78;51.19
54918;BME280;40818;50.562;7.454;2023-05-22T13:23:52;97498.63;;;29.14;49.55
54918;BME280;40818;50.562;7.454;2023-05-22T13:33:55;97513.75;;;28.02;51.38
54918;BME280;40818;50.562;7.454;2023-05-22T13:44:01;97523.56;;;27.31;55.80
54918;BME280;40818;50.562;7.454;2023-05-22T13:54:05;97517.44;;;26.65;55.73
54918;BME280;40818;50.562;7.454;2023-05-22T14:04:11;97519.13;;;25.92;58.60
54918;BME280;40818;50.562;7.454;2023-05-22T14:14:14;97509.09;;;26.01;59.72
54918;BME280;40818;50.562;7.454;2023-05-22T14:24:25;97516.28;;;26.14;58.21
54918;BME280;40818;50.562;7.454;2023-05-22T14:34:29;97509.13;;;25.87;60.45
54918;BME280;40818;50.562;7.454;2023-05-22T14:44:35;97497.84;;;25.72;59.78
54918;BME280;40818;50.562;7.454;2023-05-22T14:54:38;97495.97;;;24.91;61.83
54918;BME280;40818;50.562;7.454;2023-05-22T15:04:45;97492.00;;;24.38;65.62
54918;BME280;40818;50.562;7.454;2023-05-22T15:14:48;97486.41;;;23.98;67.48
54918;BME280;40818;50.562;7.454;2023-05-22T15:25:05;97480.16;;;24.06;68.16
54918;BME280;40818;50.562;7.454;2023-05-22T15:35:09;97472.28;;;23.69;68.29
54918;BME280;40818;50.562;7.454;2023-05-22T15:45:16;97465.47;;;23.38;70.56
54918;BME280;40818;50.562;7.454;2023-05-22T15:55:19;97481.06;;;22.96;73.19
54918;BME280;40818;50.562;7.454;2023-05-22T16:05:25;97474.88;;;22.89;73.32
54918;BME280;40818;50.562;7.454;2023-05-22T16:15:30;97475.91;;;22.43;76.08
54918;BME280;40818;50.562;7.454;2023-05-22T16:25:36;97476.47;;;21.86;79.96
54918;BME280;40818;50.562;7.454;2023-05-22T16:35:40;97493.25;;;21.70;81.71
54918;BME280;40818;50.562;7.454;2023-05-22T16:45:48;97483.22;;;21.65;83.00
54918;BME280;40818;50.562;7.454;2023-05-22T16:55:52;97486.06;;;21.32;85.29
54918;BME280;40818;50.562;7.454;2023-05-22T17:05:59;97496.84;;;21.22;87.06
54918;BME280;40818;50.562;7.454;2023-05-22T17:16:02;97517.16;;;21.22;86.51
54918;BME280;40818;50.562;7.454;2023-05-22T17:26:08;97528.47;;;21.30;85.52
54918;BME280;40818;50.562;7.454;2023-05-22T17:36:12;97537.19;;;21.39;84.37
54918;BME280;40818;50.562;7.454;2023-05-22T17:46:18;97550.75;;;21.28;85.77
54918;BME280;40818;50.562;7.454;2023-05-22T17:56:21;97565.00;;;21.19;85.17
54918;BME280;40818;50.562;7.454;2023-05-22T18:06:28;97571.34;;;20.93;88.60
54918;BME280;40818;50.562;7.454;2023-05-22T18:16:32;97574.38;;;20.65;89.55
54918;BME280;40818;50.562;7.454;2023-05-22T18:26:38;97587.28;;;20.27;92.98
54918;BME280;40818;50.562;7.454;2023-05-22T18:36:41;97600.44;;;20.02;93.44
54918;BME280;40818;50.562;7.454;2023-05-22T18:46:47;97601.91;;;19.88;93.74
54918;BME280;40818;50.562;7.454;2023-05-22T18:56:51;97594.63;;;19.66;94.12
54918;BME280;40818;50.562;7.454;2023-05-22T19:06:57;97588.31;;;19.42;95.31
54918;BME280;40818;50.562;7.454;2023-05-22T19:17:00;97594.66;;;18.88;99.40
54918;BME280;40818;50.562;7.454;2023-05-22T19:27:07;97602.94;;;18.75;99.42
54918;BME280;40818;50.562;7.454;2023-05-22T19:37:10;97621.16;;;18.51;99.65
54918;BME280;40818;50.562;7.454;2023-05-22T19:47:16;97626.19;;;18.18;100.00
54918;BME280;40818;50.562;7.454;2023-05-22T19:57:20;97627.34;;;17.87;100.00
54918;BME280;40818;50.562;7.454;2023-05-22T20:07:26;97636.16;;;17.68;100.00
54918;BME280;40818;50.562;7.454;2023-05-22T20:17:29;97650.28;;;17.39;100.00
54918;BME280;40818;50.562;7.454;2023-05-22T20:27:36;97647.72;;;17.20;100.00
54918;BME280;40818;50.562;7.454;2023-05-22T20:37:39;97650.06;;;16.95;100.00
54918;BME280;40818;50.562;7.454;2023-05-22T20:47:45;97658.59;;;16.87;100.00
54918;BME280;40818;50.562;7.454;2023-05-22T20:57:49;97663.31;;;16.64;100.00
54918;BME280;40818;50.562;7.454;2023-05-22T21:07:56;97691.19;;;16.46;100.00
54918;BME280;40818;50.562;7.454;2023-05-22T21:17:59;97697.53;;;16.33;100.00
54918;BME280;40818;50.562;7.454;2023-05-22T21:28:05;97711.34;;;16.26;100.00
54918;BME280;40818;50.562;7.454;2023-05-22T21:38:09;97711.88;;;16.29;100.00
54918;BME280;40818;50.562;7.454;2023-05-22T21:48:15;97701.41;;;16.39;100.00
54918;BME280;40818;50.562;7.454;2023-05-22T21:58:19;97698.63;;;16.41;100.00
54918;BME280;40818;50.562;7.454;2023-05-22T22:08:25;97704.00;;;16.49;100.00
54918;BME280;40818;50.562;7.454;2023-05-22T22:18:29;97700.28;;;16.61;100.00
54918;BME280;40818;50.562;7.454;2023-05-22T22:28:36;97710.09;;;16.49;100.00
54918;BME280;40818;50.562;7.454;2023-05-22T22:38:40;97704.44;;;16.54;100.00
54918;BME280;40818;50.562;7.454;2023-05-22T22:48:46;97709.13;;;16.41;100.00
54918;BME280;40818;50.562;7.454;2023-05-22T22:58:50;97706.50;;;16.31;100.00
54918;BME280;40818;50.562;7.454;2023-05-22T23:08:56;97721.53;;;16.19;100.00
54918;BME280;40818;50.562;7.454;2023-05-22T23:19:02;97724.63;;;15.93;100.00
54918;BME280;40818;50.562;7.454;2023-05-22T23:29:08;97719.72;;;15.69;100.00
54918;BME280;40818;50.562;7.454;2023-05-22T23:39:12;97728.16;;;15.42;100.00
54918;BME280;40818;50.562;7.454;2023-05-22T23:49:18;97726.66;;;15.18;100.00
54918;BME280;40818;50.562;7.454;2023-05-22T23:59:22;97742.03;;;14.90;100.00
